Ajaccio-Napoléon Bonaparte Airport

Airport
ICAO code: 
LFKJ
IATA Code: 
AJA
Summary
ICAO Region: 
EUR
Territory: 
Location: 
Ajaccio, Corse
Serving: 
Ajaccio
Elevation: 
18 ft
Coordinates: 
Aerial View: 
41° 55' 25.093" N, 8° 48' 10.501" E
Metar
Observation
LFKJ 241730Z AUTO 04004KT CAVOK 09/06 Q1030 NOSIG
Station
Ajaccio
Date/Time
2022-01-24 17:30:00
Wind direction
40°
Wind speed
04 kts
Lowest cloud amount
clouds and visibility OK
Temperature
9°C
Dew point
6°C
Humidity
81%
QNH
1030 hPa
Weather condition
n/a

Runways

Designator Length Width Surface Rops
2/20 2407 45 ASP Yes/Yes
Airport map: 
Aerial View: 

SKYbrary Partners:

Safety knowledge contributed by: